createdAt,value
2023-01-27T00:02:16.014Z,102545.06
2023-01-27T00:04:47.993Z,102538.25
2023-01-27T00:07:19.953Z,102540.78
2023-01-27T00:09:51.955Z,102552.97
2023-01-27T00:12:50.710Z,102554.00
2023-01-27T00:15:22.738Z,102549.72
2023-01-27T00:17:54.783Z,102545.47
2023-01-27T00:20:46.192Z,102544.66
2023-01-27T00:26:27.173Z,102551.53
2023-01-27T00:28:59.104Z,102541.78
2023-01-27T00:31:49.442Z,102550.47
2023-01-27T00:34:21.407Z,102540.97
2023-01-27T00:36:53.356Z,102539.06
2023-01-27T00:39:25.347Z,102543.56
2023-01-27T00:41:57.360Z,102547.88
2023-01-27T00:44:31.901Z,102547.25
2023-01-27T00:47:04.079Z,102545.59
2023-01-27T00:49:36.035Z,102545.81
2023-01-27T00:52:07.962Z,102555.50
2023-01-27T00:55:00.595Z,102547.78
2023-01-27T00:57:32.551Z,102550.25
2023-01-27T01:00:31.628Z,102557.19
2023-01-27T01:03:03.856Z,102557.63
2023-01-27T01:05:35.991Z,102559.47
2023-01-27T01:08:07.978Z,102559.59
2023-01-27T01:10:40.011Z,102555.34
2023-01-27T01:13:12.141Z,102562.19
2023-01-27T01:15:44.337Z,102558.78
2023-01-27T01:18:16.775Z,102567.56
2023-01-27T01:20:49.082Z,102571.19
2023-01-27T01:23:21.136Z,102562.50
2023-01-27T01:25:57.822Z,102565.09
2023-01-27T01:29:02.421Z,102580.81
2023-01-27T01:31:34.589Z,102569.50
2023-01-27T01:34:06.654Z,102577.81
2023-01-27T01:36:38.600Z,102583.13
2023-01-27T01:39:10.599Z,102584.91
2023-01-27T01:42:00.995Z,102583.31
2023-01-27T01:44:33.260Z,102580.66
2023-01-27T01:47:05.277Z,102581.47
2023-01-27T01:49:40.306Z,102585.22
2023-01-27T01:52:18.804Z,102578.13
2023-01-27T01:54:55.120Z,102589.47
2023-01-27T01:57:33.504Z,102581.69
2023-01-27T02:00:09.759Z,102584.41
2023-01-27T02:02:43.434Z,102589.59
2023-01-27T02:05:24.579Z,102581.00
2023-01-27T02:08:20.642Z,102590.63
2023-01-27T02:10:54.555Z,102599.16
2023-01-27T02:13:26.552Z,102600.78
2023-01-27T02:15:58.595Z,102607.47
2023-01-27T02:18:31.047Z,102597.94
2023-01-27T02:21:04.589Z,102599.44
2023-01-27T02:23:44.499Z,102600.88
2023-01-27T02:26:23.627Z,102600.59
2023-01-27T02:29:08.955Z,102598.75
2023-01-27T02:31:41.799Z,102594.31
2023-01-27T02:34:18.010Z,102593.44
2023-01-27T02:36:57.421Z,102589.75
2023-01-27T02:40:03.616Z,102589.53
2023-01-27T02:42:35.571Z,102599.66
2023-01-27T02:45:08.205Z,102588.06
2023-01-27T02:47:41.698Z,102603.81
2023-01-27T02:50:13.728Z,102594.41
2023-01-27T02:52:45.705Z,102596.72
2023-01-27T02:55:17.752Z,102600.41
2023-01-27T02:57:49.726Z,102604.50
2023-01-27T03:00:21.787Z,102607.09
2023-01-27T03:03:32.810Z,102601.91
2023-01-27T03:06:04.914Z,102611.31
2023-01-27T03:08:37.168Z,102609.75
2023-01-27T03:11:50.088Z,102610.63
2023-01-27T03:14:22.218Z,102610.63
2023-01-27T03:17:12.600Z,102615.00
2023-01-27T03:20:01.626Z,102623.59
2023-01-27T03:22:33.625Z,102613.47
2023-01-27T03:25:06.457Z,102618.06
2023-01-27T03:27:38.419Z,102613.56
2023-01-27T03:30:11.643Z,102623.91
2023-01-27T03:32:46.895Z,102626.22
2023-01-27T03:35:19.134Z,102635.47
2023-01-27T03:38:09.358Z,102626.22
2023-01-27T03:41:40.679Z,102635.03
2023-01-27T03:44:31.212Z,102633.88
2023-01-27T03:47:03.771Z,102639.13
2023-01-27T03:49:35.708Z,102641.88
2023-01-27T03:52:32.587Z,102646.03
2023-01-27T03:55:04.894Z,102640.34
2023-01-27T03:57:38.307Z,102647.31
2023-01-27T04:00:11.337Z,102651.53
2023-01-27T05:31:47.461Z,102721.47
2023-01-27T05:34:19.419Z,102725.75
2023-01-27T05:36:52.062Z,102717.47
2023-01-27T05:39:24.233Z,102717.53
2023-01-27T05:41:56.429Z,102720.22
2023-01-27T05:44:28.422Z,102721.19
2023-01-27T05:47:00.419Z,102722.94
2023-01-27T05:49:50.829Z,102736.88
2023-01-27T05:52:22.812Z,102726.56
2023-01-27T05:54:54.780Z,102721.63
2023-01-27T05:57:26.783Z,102720.13
2023-01-27T05:59:58.715Z,102739.81
2023-01-27T06:02:30.756Z,102729.53
2023-01-27T06:05:02.779Z,102719.03
2023-01-27T06:07:34.750Z,102713.78
2023-01-27T06:10:07.417Z,102714.59
2023-01-27T06:12:39.351Z,102719.84
2023-01-27T06:15:12.011Z,102721.47
2023-01-27T06:17:55.038Z,102732.72
2023-01-27T06:20:27.077Z,102736.19
2023-01-27T06:22:59.195Z,102727.84
2023-01-27T06:25:35.658Z,102731.31
2023-01-27T06:28:10.783Z,102740.88
2023-01-27T06:30:44.916Z,102742.50
2023-01-27T06:33:17.105Z,102742.56
2023-01-27T06:35:49.239Z,102757.16
2023-01-27T06:38:21.794Z,102764.03
2023-01-27T06:40:53.772Z,102757.16
2023-01-27T06:43:25.911Z,102755.44
2023-01-27T06:45:58.097Z,102765.44
2023-01-27T06:48:30.793Z,102774.41
2023-01-27T06:51:02.842Z,102775.88
2023-01-27T06:53:37.474Z,102781.13
2023-01-27T06:56:09.588Z,102783.72
2023-01-27T06:58:42.786Z,102784.69
2023-01-27T07:01:14.829Z,102786.22
2023-01-27T07:03:46.927Z,102790.75
2023-01-27T07:08:57.705Z,102800.16
2023-01-27T07:11:29.677Z,102796.69
2023-01-27T07:14:03.070Z,102801.94
2023-01-27T07:16:35.137Z,102804.38
2023-01-27T07:19:07.526Z,102817.16
2023-01-27T07:21:39.974Z,102824.28
2023-01-27T07:24:12.003Z,102813.84
2023-01-27T07:26:48.225Z,102812.00
2023-01-27T07:29:20.448Z,102815.81
2023-01-27T07:31:52.494Z,102820.63
2023-01-27T07:34:24.615Z,102825.72
2023-01-27T07:37:53.267Z,102828.06
2023-01-27T07:40:25.503Z,102833.03
2023-01-27T07:43:02.358Z,102842.50
2023-01-27T07:45:34.415Z,102837.31
2023-01-27T07:48:24.197Z,102855.19
2023-01-27T07:50:56.189Z,102852.28
2023-01-27T07:53:28.432Z,102855.94
2023-01-27T07:56:00.876Z,102857.28
2023-01-27T07:58:54.229Z,102865.47
2023-01-27T08:01:26.222Z,102859.84
2023-01-27T08:04:02.302Z,102859.44
2023-01-27T08:06:34.268Z,102872.63
2023-01-27T08:09:07.013Z,102861.53
2023-01-27T08:11:40.514Z,102869.69
2023-01-27T08:14:12.614Z,102874.19
2023-01-27T08:16:44.628Z,102880.28
2023-01-27T08:19:16.757Z,102885.69
2023-01-27T08:21:48.713Z,102879.88
2023-01-27T08:24:20.704Z,102876.53
2023-01-27T08:26:52.730Z,102884.25
2023-01-27T08:29:25.016Z,102885.78
2023-01-27T08:31:59.080Z,102885.13
2023-01-27T08:34:31.151Z,102884.31
2023-01-27T08:37:04.824Z,102878.47
2023-01-27T08:39:36.839Z,102879.59
2023-01-27T08:42:08.962Z,102881.28
2023-01-27T08:44:40.946Z,102877.31
2023-01-27T08:47:13.018Z,102879.53
2023-01-27T08:49:46.132Z,102884.19
2023-01-27T08:52:18.289Z,102881.91
2023-01-27T08:54:51.403Z,102888.84
2023-01-27T08:57:24.843Z,102898.56
2023-01-27T08:59:56.939Z,102899.69
2023-01-27T09:02:28.986Z,102903.22
2023-01-27T09:05:01.195Z,102908.41
2023-01-27T09:07:34.226Z,102907.69
2023-01-27T09:10:14.464Z,102909.69
2023-01-27T09:12:47.360Z,102910.19
2023-01-27T09:15:19.422Z,102912.78
2023-01-27T09:17:53.946Z,102924.06
2023-01-27T09:20:26.199Z,102920.66
2023-01-27T09:22:59.423Z,102925.25
2023-01-27T09:25:32.107Z,102930.34
2023-01-27T09:28:04.129Z,102927.84
2023-01-27T09:30:40.926Z,102934.72
2023-01-27T09:33:17.576Z,102932.31
2023-01-27T09:36:15.706Z,102926.94
2023-01-27T09:39:03.399Z,102924.03
2023-01-27T09:41:55.448Z,102924.13
2023-01-27T09:45:32.898Z,102926.41
2023-01-27T09:48:24.831Z,102919.28
2023-01-27T09:51:34.216Z,102917.78
2023-01-27T09:54:39.821Z,102917.63
2023-01-27T09:57:32.189Z,102918.75
2023-01-27T10:01:03.606Z,102928.75
2023-01-27T10:04:22.820Z,102930.03
2023-01-27T10:07:24.544Z,102927.28
2023-01-27T10:10:53.329Z,102927.34
2023-01-27T10:13:46.407Z,102926.41
2023-01-27T10:16:55.241Z,102923.78
2023-01-27T10:19:30.040Z,102920.06
2023-01-27T10:22:13.915Z,102921.44
2023-01-27T10:24:57.300Z,102923.28
2023-01-27T10:27:37.500Z,102927.47
2023-01-27T10:30:22.295Z,102927.00
2023-01-27T10:33:15.245Z,102933.09
2023-01-27T10:36:00.448Z,102922.41
2023-01-27T10:39:07.459Z,102923.44
2023-01-27T10:41:57.170Z,102922.75
2023-01-27T10:45:09.799Z,102927.66
2023-01-27T10:48:38.527Z,102926.50
2023-01-27T10:51:22.011Z,102929.56
2023-01-27T10:54:10.316Z,102929.41
2023-01-27T10:56:59.897Z,102928.75
2023-01-27T11:00:17.395Z,102927.44
2023-01-27T11:03:28.474Z,102923.06
2023-01-27T11:06:08.471Z,102923.25
2023-01-27T11:08:46.459Z,102922.50
2023-01-27T11:11:43.504Z,102925.84
2023-01-27T11:14:32.394Z,102913.72
2023-01-27T11:17:15.696Z,102922.72
2023-01-27T11:20:06.687Z,102922.59
2023-01-27T11:23:11.114Z,102917.84
2023-01-27T11:26:28.912Z,102919.94
2023-01-27T11:29:24.207Z,102917.16
2023-01-27T11:32:19.249Z,102922.09
2023-01-27T11:35:10.678Z,102920.44
2023-01-27T11:38:15.015Z,102914.44
2023-01-27T11:40:52.339Z,102919.75
2023-01-27T11:43:30.354Z,102919.19
2023-01-27T11:46:06.126Z,102919.56
2023-01-27T11:48:47.693Z,102907.19
2023-01-27T11:52:27.077Z,102906.75
2023-01-27T11:55:14.328Z,102906.06
2023-01-27T12:01:36.849Z,102898.75
2023-01-27T12:04:46.488Z,102896.97
2023-01-27T12:08:23.252Z,102899.44
2023-01-27T12:10:55.241Z,102903.97
2023-01-27T12:13:51.150Z,102898.31
2023-01-27T12:16:29.960Z,102896.09
2023-01-27T12:19:28.144Z,102901.22
2023-01-27T12:22:07.195Z,102888.56
2023-01-27T12:24:46.861Z,102893.25
2023-01-27T12:28:24.057Z,102880.34
2023-01-27T12:31:06.297Z,102891.84
2023-01-27T12:33:45.993Z,102895.75
2023-01-27T12:39:57.078Z,102886.69
2023-01-27T12:42:38.488Z,102899.69
2023-01-27T12:45:23.914Z,102885.94
2023-01-27T12:48:30.786Z,102890.31
2023-01-27T12:51:15.046Z,102888.53
2023-01-27T12:54:38.506Z,102890.16
2023-01-27T12:57:18.385Z,102895.00
2023-01-27T12:59:57.463Z,102893.97
2023-01-27T13:02:33.877Z,102887.22
2023-01-27T13:05:08.336Z,102882.84
2023-01-27T13:07:47.137Z,102887.00
2023-01-27T13:10:24.901Z,102890.16
2023-01-27T13:12:59.682Z,102893.22
2023-01-27T13:15:32.399Z,102891.25
2023-01-27T13:18:55.822Z,102891.38
2023-01-27T13:21:39.871Z,102898.06
2023-01-27T13:24:21.768Z,102902.97
2023-01-27T13:26:55.252Z,102906.53
2023-01-27T13:29:33.546Z,102907.25
2023-01-27T13:32:18.083Z,102904.50
2023-01-27T13:34:59.256Z,102898.25
2023-01-27T13:38:52.810Z,102912.94
2023-01-27T13:41:41.656Z,102913.84
2023-01-27T13:44:41.829Z,102912.19
2023-01-27T13:47:27.130Z,102915.69
2023-01-27T13:50:20.814Z,102913.00
2023-01-27T13:53:00.118Z,102924.06
2023-01-27T13:55:56.792Z,102918.78
2023-01-27T13:58:53.363Z,102919.69
2023-01-27T14:02:26.097Z,102922.13
2023-01-27T14:06:04.153Z,102926.94
2023-01-27T14:09:52.480Z,102922.44
2023-01-27T14:13:00.009Z,102924.88
2023-01-27T14:16:22.742Z,102931.38
2023-01-27T14:19:10.415Z,102926.63
2023-01-27T14:22:42.016Z,102929.97
2023-01-27T14:25:25.648Z,102925.16
2023-01-27T14:28:10.841Z,102923.75
2023-01-27T14:31:24.902Z,102913.59
2023-01-27T14:34:51.504Z,102914.34
2023-01-27T14:37:52.970Z,102910.63
2023-01-27T14:41:12.336Z,102919.16
2023-01-27T14:43:59.844Z,102917.47
2023-01-27T14:46:54.717Z,102913.81
2023-01-27T14:49:49.739Z,102921.69
2023-01-27T14:53:05.946Z,102913.91
2023-01-27T14:55:57.419Z,102918.94
2023-01-27T14:58:54.833Z,102927.69
2023-01-27T15:01:46.163Z,102915.53
2023-01-27T15:05:13.885Z,102935.31
2023-01-27T15:08:21.388Z,102932.25
2023-01-27T15:11:33.347Z,102931.78
2023-01-27T15:14:26.884Z,102924.91
2023-01-27T15:17:29.704Z,102930.25
2023-01-27T15:21:15.569Z,102935.06
2023-01-27T15:24:07.063Z,102934.31
2023-01-27T15:26:40.363Z,102933.06
2023-01-27T15:29:16.259Z,102934.13
2023-01-27T15:32:13.337Z,102940.91
2023-01-27T15:34:54.037Z,102936.72
2023-01-27T15:37:30.737Z,102933.22
2023-01-27T15:40:13.333Z,102937.44
2023-01-27T15:43:00.592Z,102945.94
2023-01-27T15:45:38.070Z,102945.06
2023-01-27T15:48:23.236Z,102949.34
2023-01-27T15:51:06.979Z,102944.91
2023-01-27T15:53:46.208Z,102957.94
2023-01-27T15:56:18.468Z,102951.56
2023-01-27T16:02:25.594Z,102958.03
2023-01-27T16:05:15.463Z,102960.88
2023-01-27T16:07:53.586Z,102967.91
2023-01-27T16:10:32.181Z,102977.88
2023-01-27T16:13:30.252Z,102975.03
2023-01-27T16:16:17.912Z,102984.44
2023-01-27T16:19:12.262Z,102977.78
2023-01-27T16:21:53.330Z,102978.78
2023-01-27T16:24:51.044Z,102984.75
2023-01-27T16:27:56.101Z,102979.66
2023-01-27T16:31:13.926Z,102984.34
2023-01-27T16:34:14.554Z,102988.41
2023-01-27T16:36:47.373Z,102994.38
2023-01-27T16:39:31.505Z,102993.50
2023-01-27T16:42:04.587Z,102996.31
2023-01-27T16:44:47.624Z,103005.88
2023-01-27T16:47:30.757Z,103004.25
2023-01-27T16:50:03.060Z,103016.47
2023-01-27T16:52:42.172Z,103018.09
2023-01-27T16:55:22.220Z,103015.34
2023-01-27T16:57:56.299Z,103015.44
2023-01-27T17:00:33.101Z,103007.75
2023-01-27T17:03:14.939Z,103011.06
2023-01-27T17:05:52.592Z,103014.38
2023-01-27T17:08:30.644Z,103024.66
2023-01-27T17:11:17.719Z,103021.16
2023-01-27T17:14:06.414Z,103022.38
2023-01-27T17:16:45.556Z,103027.34
2023-01-27T17:19:27.732Z,103023.25
2023-01-27T17:22:03.334Z,103018.59
2023-01-27T17:24:50.044Z,103021.19
2023-01-27T17:31:37.391Z,103034.22
2023-01-27T17:34:17.649Z,103039.59
2023-01-27T17:37:36.651Z,103039.59
2023-01-27T17:41:10.237Z,103039.69
2023-01-27T17:43:44.772Z,103041.63
2023-01-27T17:46:21.701Z,103046.09
2023-01-27T17:49:16.717Z,103049.31
2023-01-27T17:51:51.846Z,103052.88
2023-01-27T17:54:30.507Z,103053.78
2023-01-27T17:57:23.841Z,103050.56
2023-01-27T18:41:42.001Z,103060.16
2023-01-27T18:44:36.004Z,103054.16
2023-01-27T18:58:06.648Z,103063.47
2023-01-27T19:05:45.329Z,103063.22
2023-01-27T19:20:45.312Z,103080.47
2023-01-27T20:05:15.557Z,103114.25
2023-01-27T21:48:56.381Z,103066.75
2023-01-27T23:11:41.064Z,103082.44
2023-01-27T23:50:28.461Z,103059.00
